Time,TemperatureF,DewpointF,PressureIn,WindDirection,WindDirectionDegrees,WindSpeedMPH,WindSpeedGustMPH,Humidity,HourlyPrecipIn,Conditions,Clouds,dailyrainin,SoftwareType,DateUTC
2013-02-09 00:00:00,19.9,16.1,30.36,WNW,295,0.0,1.0,85,0.00,,SKC,0.08,VWS V14.01,2013-02-09 05:00:00,
2013-02-09 00:05:00,20.0,16.2,30.36,WNW,295,0.0,0.0,85,0.00,,SKC,0.00,VWS V14.01,2013-02-09 05:05:00,
2013-02-09 00:10:00,20.1,16.3,30.36,WNW,302,1.0,1.0,85,0.00,,SKC,0.00,VWS V14.01,2013-02-09 05:10:00,
2013-02-09 00:15:00,20.0,16.2,30.37,WNW,302,0.0,1.0,85,0.00,,SKC,0.00,VWS V14.01,2013-02-09 05:15:00,
2013-02-09 00:20:00,19.9,16.1,30.36,WNW,302,1.0,1.0,85,0.00,,SKC,0.00,VWS V14.01,2013-02-09 05:20:00,
2013-02-09 00:25:00,19.7,15.9,30.37,WNW,303,0.0,0.0,85,0.00,,SKC,0.00,VWS V14.01,2013-02-09 05:25:00,
2013-02-09 00:30:00,19.7,15.9,30.37,WNW,298,2.0,2.0,85,0.00,,SKC,0.00,VWS V14.01,2013-02-09 05:30:00,
2013-02-09 00:35:00,19.5,15.7,30.38,WNW,292,0.0,0.0,85,0.00,,SKC,0.00,VWS V14.01,2013-02-09 05:35:00,
2013-02-09 00:40:00,19.5,15.7,30.37,NW,317,0.0,1.0,85,0.00,,SKC,0.00,VWS V14.01,2013-02-09 05:40:00,
2013-02-09 00:45:00,19.3,15.5,30.37,NW,317,0.0,2.0,85,0.00,,SKC,0.00,VWS V14.01,2013-02-09 05:45:00,
2013-02-09 00:50:00,19.4,15.9,30.38,NW,311,0.0,0.0,86,0.00,,SKC,0.00,VWS V14.01,2013-02-09 05:50:00,
2013-02-09 00:55:00,19.3,15.8,30.38,NW,321,2.0,3.0,86,0.00,,SKC,0.00,VWS V14.01,2013-02-09 05:55:00,
2013-02-09 01:00:00,19.4,15.9,30.39,NW,323,0.0,2.0,86,0.00,,SKC,0.00,VWS V14.01,2013-02-09 06:00:00,
2013-02-09 01:05:00,19.4,15.9,30.39,NW,306,1.0,2.0,86,0.00,,SKC,0.00,VWS V14.01,2013-02-09 06:05:00,
2013-02-09 01:10:00,19.5,16.0,30.38,NW,306,2.0,2.0,86,0.00,,SKC,0.00,VWS V14.01,2013-02-09 06:10:00,
2013-02-09 01:15:00,19.4,15.9,30.38,NW,317,1.0,2.0,86,0.00,,SKC,0.00,VWS V14.01,2013-02-09 06:15:00,
2013-02-09 01:20:00,19.2,15.7,30.38,NNW,343,3.0,3.0,86,0.00,,SKC,0.00,VWS V14.01,2013-02-09 06:20:00,
2013-02-09 01:26:00,19.2,15.7,30.38,NNW,330,3.0,4.0,86,0.00,,SKC,0.00,VWS V14.01,2013-02-09 06:26:00,
2013-02-09 01:30:00,19.3,15.8,30.38,NNW,334,2.0,3.0,86,0.00,,SKC,0.00,VWS V14.01,2013-02-09 06:30:00,
2013-02-09 01:31:00,19.3,15.8,30.38,NNW,338,2.0,3.0,86,0.00,,SKC,0.00,VWS V14.01,2013-02-09 06:31:00,
2013-02-09 01:36:00,19.3,15.8,30.38,NNW,337,2.0,2.0,86,0.00,,SKC,0.00,VWS V14.01,2013-02-09 06:36:00,
2013-02-09 01:41:00,19.6,16.1,30.38,NNW,336,3.0,3.0,86,0.00,,SKC,0.00,VWS V14.01,2013-02-09 06:41:00,
2013-02-09 01:46:00,19.7,16.2,30.39,NNW,338,3.0,4.0,86,0.00,,SKC,0.00,VWS V14.01,2013-02-09 06:46:00,
2013-02-09 01:51:00,20.2,16.4,30.39,NW,319,2.0,3.0,85,0.00,,SKC,0.00,VWS V14.01,2013-02-09 06:51:00,
2013-02-09 01:55:00,20.2,16.4,30.39,NW,325,3.0,3.0,85,0.00,,SKC,0.00,VWS V14.01,2013-02-09 06:55:00,
2013-02-09 02:00:00,20.0,15.9,30.39,NNW,345,3.0,3.0,84,0.00,,SKC,0.00,VWS V14.01,2013-02-09 07:00:00,
2013-02-09 02:01:00,20.0,15.9,30.39,NNW,338,1.0,3.0,84,0.00,,SKC,0.00,VWS V14.01,2013-02-09 07:01:00,
2013-02-09 02:06:00,19.9,15.9,30.39,NNW,335,1.0,3.0,84,0.00,,SKC,0.00,VWS V14.01,2013-02-09 07:06:00,
2013-02-09 02:11:00,20.0,15.9,30.39,North,355,4.0,4.0,84,0.00,,SKC,0.00,VWS V14.01,2013-02-09 07:11:00,
2013-02-09 02:16:00,20.1,16.0,30.39,NNW,335,3.0,3.0,84,0.00,,SKC,0.00,VWS V14.01,2013-02-09 07:16:00,
2013-02-09 02:21:00,20.1,16.0,30.39,NNW,339,2.0,2.0,84,0.00,,SKC,0.00,VWS V14.01,2013-02-09 07:21:00,
2013-02-09 02:26:00,20.1,15.8,30.39,NNW,337,0.0,3.0,83,0.00,,SKC,0.00,VWS V14.01,2013-02-09 07:26:00,
2013-02-09 02:30:00,20.1,15.8,30.40,NNW,337,1.0,2.0,83,0.00,,SKC,0.00,VWS V14.01,2013-02-09 07:30:00,
2013-02-09 02:31:00,20.2,15.9,30.40,NNW,337,1.0,2.0,83,0.00,,SKC,0.00,VWS V14.01,2013-02-09 07:31:00,
2013-02-09 02:36:00,20.0,15.7,30.40,NNW,337,2.0,2.0,83,0.00,,SKC,0.00,VWS V14.01,2013-02-09 07:36:00,
2013-02-09 02:41:00,19.9,15.6,30.41,NNW,337,1.0,2.0,83,0.00,,SKC,0.00,VWS V14.01,2013-02-09 07:41:00,
2013-02-09 02:46:00,19.7,15.4,30.41,NNW,337,0.0,2.0,83,0.00,,SKC,0.00,VWS V14.01,2013-02-09 07:46:00,
2013-02-09 02:51:00,19.7,15.1,30.41,NNW,337,0.0,2.0,82,0.00,,SKC,0.00,VWS V14.01,2013-02-09 07:51:00,
2013-02-09 02:56:00,19.5,14.9,30.41,NNW,329,2.0,2.0,82,0.00,,SKC,0.00,VWS V14.01,2013-02-09 07:56:00,
2013-02-09 03:00:00,19.4,14.8,30.41,NNW,336,0.0,2.0,82,0.00,,SKC,0.00,VWS V14.01,2013-02-09 08:00:00,
2013-02-09 03:01:00,19.4,14.8,30.41,NNW,336,0.0,2.0,82,0.00,,SKC,0.00,VWS V14.01,2013-02-09 08:01:00,
2013-02-09 03:06:00,19.4,15.1,30.41,NNW,338,1.0,2.0,83,0.00,,SKC,0.00,VWS V14.01,2013-02-09 08:06:00,
2013-02-09 03:11:00,19.5,15.2,30.41,NNW,327,1.0,1.0,83,0.00,,SKC,0.00,VWS V14.01,2013-02-09 08:11:00,
2013-02-09 03:16:00,19.3,14.7,30.41,NNW,333,1.0,2.0,82,0.00,,SKC,0.00,VWS V14.01,2013-02-09 08:16:00,
2013-02-09 03:21:00,19.0,14.4,30.41,North,5,0.0,1.0,82,0.00,,SKC,0.00,VWS V14.01,2013-02-09 08:21:00,
2013-02-09 03:26:00,18.8,14.5,30.41,North,5,2.0,2.0,83,0.00,,SKC,0.00,VWS V14.01,2013-02-09 08:26:00,
2013-02-09 03:30:00,18.5,14.2,30.41,North,5,1.0,2.0,83,0.00,,SKC,0.00,VWS V14.01,2013-02-09 08:30:00,
2013-02-09 03:31:00,18.5,14.2,30.41,North,5,1.0,2.0,83,0.00,,SKC,0.00,VWS V14.01,2013-02-09 08:31:00,
2013-02-09 03:36:00,18.5,14.2,30.41,North,9,1.0,2.0,83,0.00,,SKC,0.00,VWS V14.01,2013-02-09 08:36:00,
2013-02-09 03:41:00,18.4,14.1,30.41,NNE,17,2.0,2.0,83,0.00,,SKC,0.00,VWS V14.01,2013-02-09 08:41:00,
2013-02-09 03:46:00,18.6,14.6,30.41,NNE,17,0.0,1.0,84,0.00,,SKC,0.00,VWS V14.01,2013-02-09 08:46:00,
2013-02-09 03:51:00,18.5,14.2,30.41,NNE,17,1.0,2.0,83,0.00,,SKC,0.00,VWS V14.01,2013-02-09 08:51:00,
2013-02-09 03:56:00,18.3,14.0,30.41,NNE,18,0.0,1.0,83,0.00,,SKC,0.00,VWS V14.01,2013-02-09 08:56:00,
2013-02-09 04:00:00,18.3,14.3,30.41,NNE,19,0.0,2.0,84,0.00,,SKC,0.00,VWS V14.01,2013-02-09 09:00:00,
2013-02-09 04:01:00,18.3,14.3,30.41,NNE,19,0.0,2.0,84,0.00,,SKC,0.00,VWS V14.01,2013-02-09 09:01:00,
2013-02-09 04:07:00,18.3,14.3,30.41,NNE,20,0.0,3.0,84,0.00,,SKC,0.00,VWS V14.01,2013-02-09 09:07:00,
2013-02-09 04:12:00,18.4,14.4,30.41,NNE,22,1.0,2.0,84,0.00,,SKC,0.00,VWS V14.01,2013-02-09 09:12:00,
2013-02-09 04:17:00,18.4,14.4,30.40,NE,41,3.0,3.0,84,0.00,,SKC,0.00,VWS V14.01,2013-02-09 09:17:00,
2013-02-09 04:22:00,18.1,14.1,30.40,NE,43,3.0,3.0,84,0.00,,SKC,0.00,VWS V14.01,2013-02-09 09:22:00,
2013-02-09 04:27:00,18.2,14.2,30.40,NE,49,2.0,4.0,84,0.00,,SKC,0.00,VWS V14.01,2013-02-09 09:27:00,
2013-02-09 04:30:00,18.3,14.3,30.40,ENE,57,0.0,1.0,84,0.00,,SKC,0.00,VWS V14.01,2013-02-09 09:30:00,
2013-02-09 04:32:00,18.3,14.3,30.40,ENE,57,0.0,1.0,84,0.00,,SKC,0.00,VWS V14.01,2013-02-09 09:32:00,
2013-02-09 04:37:00,17.9,13.9,30.40,ENE,57,1.0,2.0,84,0.00,,SKC,0.00,VWS V14.01,2013-02-09 09:37:00,
2013-02-09 04:42:00,17.6,13.6,30.40,ENE,57,0.0,2.0,84,0.00,,SKC,0.00,VWS V14.01,2013-02-09 09:42:00,
2013-02-09 04:47:00,17.6,13.6,30.40,ENE,57,0.0,1.0,84,0.00,,SKC,0.00,VWS V14.01,2013-02-09 09:47:00,
2013-02-09 04:52:00,17.6,13.6,30.40,ENE,57,0.0,0.0,84,0.00,,SKC,0.00,VWS V14.01,2013-02-09 09:52:00,
2013-02-09 04:57:00,17.4,13.4,30.40,ENE,57,0.0,1.0,84,0.00,,SKC,0.00,VWS V14.01,2013-02-09 09:57:00,
2013-02-09 05:00:00,17.3,13.3,30.41,ENE,57,0.0,0.0,84,0.00,,SKC,0.00,VWS V14.01,2013-02-09 10:00:00,
2013-02-09 05:02:00,17.2,13.2,30.41,ENE,57,0.0,0.0,84,0.00,,SKC,0.00,VWS V14.01,2013-02-09 10:02:00,
2013-02-09 05:07:00,17.0,13.0,30.41,ENE,57,0.0,0.0,84,0.00,,SKC,0.00,VWS V14.01,2013-02-09 10:07:00,
2013-02-09 05:12:00,16.5,12.5,30.42,ENE,57,1.0,2.0,84,0.00,,SKC,0.00,VWS V14.01,2013-02-09 10:12:00,
2013-02-09 05:17:00,15.9,11.9,30.42,ENE,57,0.0,1.0,84,0.00,,SKC,0.00,VWS V14.01,2013-02-09 10:17:00,
2013-02-09 05:22:00,15.8,12.1,30.42,ENE,57,0.0,0.0,85,0.00,,SKC,0.00,VWS V14.01,2013-02-09 10:22:00,
2013-02-09 05:27:00,16.0,12.6,30.42,ENE,57,0.0,0.0,86,0.00,,SKC,0.00,VWS V14.01,2013-02-09 10:27:00,
2013-02-09 05:30:00,16.0,12.6,30.42,ENE,57,0.0,0.0,86,0.00,,SKC,0.00,VWS V14.01,2013-02-09 10:30:00,
2013-02-09 05:32:00,16.0,12.6,30.42,ENE,57,0.0,0.0,86,0.00,,SKC,0.00,VWS V14.01,2013-02-09 10:32:00,
2013-02-09 05:37:00,15.9,12.5,30.42,ENE,57,0.0,0.0,86,0.00,,SKC,0.00,VWS V14.01,2013-02-09 10:37:00,
2013-02-09 05:42:00,15.7,12.3,30.42,ENE,57,0.0,0.0,86,0.00,,SKC,0.00,VWS V14.01,2013-02-09 10:42:00,
2013-02-09 05:47:00,15.6,12.2,30.43,ENE,57,0.0,0.0,86,0.00,,SKC,0.00,VWS V14.01,2013-02-09 10:47:00,
2013-02-09 05:52:00,15.5,12.1,30.43,ENE,57,0.0,0.0,86,0.00,,SKC,0.00,VWS V14.01,2013-02-09 10:52:00,
2013-02-09 05:57:00,15.5,12.1,30.43,ENE,57,0.0,0.0,86,0.00,,SKC,0.00,VWS V14.01,2013-02-09 10:57:00,
2013-02-09 06:00:00,15.4,12.0,30.43,ENE,57,0.0,0.0,86,0.00,,SKC,0.00,VWS V14.01,2013-02-09 11:00:00,
2013-02-09 06:02:00,15.4,12.0,30.43,ENE,57,0.0,0.0,86,0.00,,SKC,0.00,VWS V14.01,2013-02-09 11:02:00,
2013-02-09 06:08:00,15.3,11.9,30.43,ENE,57,0.0,0.0,86,0.00,,SKC,0.00,VWS V14.01,2013-02-09 11:08:00,
2013-02-09 06:13:00,15.3,12.1,30.43,ENE,57,0.0,0.0,87,0.00,,SKC,0.00,VWS V14.01,2013-02-09 11:13:00,
2013-02-09 06:18:00,15.3,12.1,30.44,ENE,57,0.0,1.0,87,0.00,,SKC,0.00,VWS V14.01,2013-02-09 11:18:00,
2013-02-09 06:23:00,15.2,12.0,30.44,ENE,57,0.0,0.0,87,0.00,,SKC,0.00,VWS V14.01,2013-02-09 11:23:00,
2013-02-09 06:28:00,14.9,11.5,30.44,ENE,57,0.0,0.0,86,0.00,,SKC,0.00,VWS V14.01,2013-02-09 11:28:00,
2013-02-09 06:30:00,14.8,11.6,30.44,ENE,57,0.0,0.0,87,0.00,,SKC,0.00,VWS V14.01,2013-02-09 11:30:00,
2013-02-09 06:33:00,14.8,11.6,30.44,ENE,57,0.0,0.0,87,0.00,,SKC,0.00,VWS V14.01,2013-02-09 11:33:00,
2013-02-09 06:38:00,14.7,11.5,30.43,ENE,57,0.0,0.0,87,0.00,,SKC,0.00,VWS V14.01,2013-02-09 11:38:00,
2013-02-09 06:43:00,14.6,11.4,30.43,ENE,57,0.0,0.0,87,0.00,,SKC,0.00,VWS V14.01,2013-02-09 11:43:00,
2013-02-09 06:48:00,14.5,11.3,30.43,ENE,57,0.0,0.0,87,0.00,,SKC,0.00,VWS V14.01,2013-02-09 11:48:00,
2013-02-09 06:53:00,14.4,11.2,30.43,ENE,57,0.0,0.0,87,0.00,,SKC,0.00,VWS V14.01,2013-02-09 11:53:00,
2013-02-09 06:58:00,14.3,11.1,30.43,ENE,57,0.0,0.0,87,0.00,,SKC,0.00,VWS V14.01,2013-02-09 11:58:00,
2013-02-09 07:00:00,14.1,10.9,30.43,ENE,57,0.0,0.0,87,0.00,,SKC,0.00,VWS V14.01,2013-02-09 12:00:00,
2013-02-09 07:03:00,14.0,10.9,30.43,ENE,57,0.0,0.0,87,0.00,,SKC,0.00,VWS V14.01,2013-02-09 12:03:00,
2013-02-09 07:08:00,13.7,10.6,30.43,ENE,57,0.0,0.0,87,0.00,,SKC,0.00,VWS V14.01,2013-02-09 12:08:00,
2013-02-09 07:13:00,13.6,10.5,30.44,ENE,57,0.0,0.0,87,0.00,,SKC,0.00,VWS V14.01,2013-02-09 12:13:00,
2013-02-09 07:18:00,13.6,10.5,30.44,ENE,57,0.0,0.0,87,0.00,,SKC,0.00,VWS V14.01,2013-02-09 12:18:00,
2013-02-09 07:23:00,13.6,10.5,30.45,ENE,57,0.0,0.0,87,0.00,,SKC,0.00,VWS V14.01,2013-02-09 12:23:00,
2013-02-09 07:28:00,13.5,10.4,30.45,ENE,57,0.0,0.0,87,0.00,,SKC,0.00,VWS V14.01,2013-02-09 12:28:00,
2013-02-09 07:30:00,13.5,10.4,30.45,ENE,57,0.0,0.0,87,0.00,,SKC,0.00,VWS V14.01,2013-02-09 12:30:00,
2013-02-09 07:33:00,13.5,10.4,30.45,ENE,57,0.0,0.0,87,0.00,,SKC,0.00,VWS V14.01,2013-02-09 12:33:00,
2013-02-09 07:38:00,13.4,10.3,30.45,ENE,57,0.0,0.0,87,0.00,,SKC,0.00,VWS V14.01,2013-02-09 12:38:00,
2013-02-09 07:43:00,13.2,10.1,30.46,ENE,57,0.0,0.0,87,0.00,,SKC,0.00,VWS V14.01,2013-02-09 12:43:00,
2013-02-09 07:48:00,13.1,10.0,30.46,ENE,57,0.0,0.0,87,0.00,,SKC,0.00,VWS V14.01,2013-02-09 12:48:00,
2013-02-09 07:53:00,13.2,10.1,30.46,ENE,57,0.0,0.0,87,0.00,,SKC,0.00,VWS V14.01,2013-02-09 12:53:00,
2013-02-09 07:58:00,13.5,10.6,30.46,ENE,57,0.0,0.0,88,0.00,,SKC,0.00,VWS V14.01,2013-02-09 12:58:00,
2013-02-09 08:00:00,13.6,10.7,30.47,ENE,57,0.0,0.0,88,0.00,,SKC,0.00,VWS V14.01,2013-02-09 13:00:00,
2013-02-09 08:03:00,13.8,10.9,30.47,ENE,57,0.0,0.0,88,0.00,,SKC,0.00,VWS V14.01,2013-02-09 13:03:00,
2013-02-09 08:08:00,14.4,11.5,30.47,ENE,57,0.0,0.0,88,0.00,,SKC,0.00,VWS V14.01,2013-02-09 13:08:00,
2013-02-09 08:13:00,15.0,12.1,30.47,ENE,57,0.0,0.0,88,0.00,,SKC,0.00,VWS V14.01,2013-02-09 13:13:00,
2013-02-09 08:18:00,15.5,12.6,30.48,ENE,57,0.0,0.0,88,0.00,,SKC,0.00,VWS V14.01,2013-02-09 13:18:00,
2013-02-09 08:30:00,17.1,14.2,30.47,North,0,0.0,0.0,88,0.00,,SKC,0.00,VWS V14.01,2013-02-09 13:30:00,
2013-02-09 08:31:00,17.1,14.0,30.47,ENE,57,0.0,0.0,88,0.00,,,0.00,weatherlink.com 1.10,2013-02-09 13:31:00,
2013-02-09 08:46:00,18.1,15.0,30.47,ESE,105,0.0,2.0,87,0.00,,,0.00,weatherlink.com 1.10,2013-02-09 13:46:00,
2013-02-09 09:00:00,19.7,16.5,30.46,ESE,112,0.0,3.0,87,0.00,,SKC,0.00,VWS V14.01,2013-02-09 14:00:00,
2013-02-09 09:01:00,19.7,17.0,30.46,East,86,0.0,1.0,87,0.00,,,0.00,weatherlink.com 1.10,2013-02-09 14:01:00,
2013-02-09 09:16:00,20.1,16.0,30.46,East,89,3.0,5.0,84,0.00,,,0.00,weatherlink.com 1.10,2013-02-09 14:16:00,
2013-02-09 09:30:00,20.7,16.4,30.47,East,90,2.0,5.0,83,0.00,,SKC,0.00,VWS V14.01,2013-02-09 14:30:00,
2013-02-09 09:31:00,20.7,16.0,30.46,East,89,2.0,3.0,83,0.00,,,0.00,weatherlink.com 1.10,2013-02-09 14:31:00,
2013-02-09 09:46:00,22.0,17.0,30.47,ESE,108,4.0,4.0,82,0.00,,,0.00,weatherlink.com 1.10,2013-02-09 14:46:00,
2013-02-09 10:00:00,22.5,17.6,30.47,East,90,1.0,4.0,81,0.00,,SKC,0.00,VWS V14.01,2013-02-09 15:00:00,
2013-02-09 10:01:00,22.5,18.0,30.47,East,100,1.0,3.0,81,0.00,,,0.00,weatherlink.com 1.10,2013-02-09 15:01:00,
2013-02-09 10:16:00,23.2,18.0,30.47,East,86,3.0,4.0,80,0.00,,,0.00,weatherlink.com 1.10,2013-02-09 15:16:00,
2013-02-09 10:30:00,23.6,17.8,30.47,ESE,112,2.0,5.0,78,0.00,,SKC,0.00,VWS V14.01,2013-02-09 15:30:00,
2013-02-09 10:31:00,23.6,18.0,30.46,East,94,2.0,4.0,78,0.00,,,0.00,weatherlink.com 1.10,2013-02-09 15:31:00,
2013-02-09 10:46:00,24.3,19.0,30.46,ESE,115,2.0,7.0,79,0.00,,,0.00,weatherlink.com 1.10,2013-02-09 15:46:00,
2013-02-09 11:00:00,24.6,18.1,30.47,East,90,3.0,9.0,76,0.00,,SKC,0.00,VWS V14.01,2013-02-09 16:00:00,
2013-02-09 11:01:00,24.6,18.0,30.47,East,99,5.0,9.0,76,0.00,,,0.00,weatherlink.com 1.10,2013-02-09 16:01:00,
2013-02-09 11:16:00,24.4,18.0,30.46,ESE,103,4.0,9.0,77,0.00,,,0.00,weatherlink.com 1.10,2013-02-09 16:16:00,
2013-02-09 11:30:00,26.3,19.8,30.46,ESE,112,4.0,9.0,76,0.00,,SKC,0.00,VWS V14.01,2013-02-09 16:30:00,
2013-02-09 11:31:00,26.3,20.0,30.46,ESE,107,7.0,7.0,76,0.00,,,0.00,weatherlink.com 1.10,2013-02-09 16:31:00,
2013-02-09 11:46:00,26.1,19.0,30.46,East,95,5.0,7.0,75,0.00,,,0.00,weatherlink.com 1.10,2013-02-09 16:46:00,
2013-02-09 12:00:00,25.7,19.2,30.45,ESE,112,4.0,8.0,76,0.00,,SKC,0.00,VWS V14.01,2013-02-09 17:00:00,
2013-02-09 12:01:00,25.7,19.0,30.45,East,97,6.0,8.0,76,0.00,,,0.00,weatherlink.com 1.10,2013-02-09 17:01:00,
2013-02-09 12:16:00,27.3,21.0,30.45,East,100,3.0,6.0,76,0.00,,,0.00,weatherlink.com 1.10,2013-02-09 17:16:00,
2013-02-09 12:30:00,27.8,20.3,30.45,East,90,2.0,6.0,73,0.00,,SKC,0.00,VWS V14.01,2013-02-09 17:30:00,
2013-02-09 12:31:00,27.8,20.0,30.45,ESE,121,3.0,3.0,73,0.00,,,0.00,weatherlink.com 1.10,2013-02-09 17:31:00,
2013-02-09 12:46:00,27.6,20.0,30.44,East,92,2.0,4.0,74,0.00,,,0.00,weatherlink.com 1.10,2013-02-09 17:46:00,
2013-02-09 13:00:00,27.3,19.8,30.44,East,90,3.0,7.0,73,0.00,,SKC,0.00,VWS V14.01,2013-02-09 18:00:00,
2013-02-09 13:01:00,27.3,20.0,30.44,ESE,105,1.0,7.0,73,0.00,,,0.00,weatherlink.com 1.10,2013-02-09 18:01:00,
2013-02-09 13:16:00,28.2,21.0,30.43,South,172,0.0,5.0,74,0.00,,,0.00,weatherlink.com 1.10,2013-02-09 18:16:00,
2013-02-09 13:30:00,28.6,21.1,30.42,East,90,2.0,7.0,73,0.00,,SKC,0.00,VWS V14.01,2013-02-09 18:30:00,
2013-02-09 13:31:00,28.6,21.0,30.42,ESE,107,1.0,7.0,73,0.00,,,0.00,weatherlink.com 1.10,2013-02-09 18:31:00,
2013-02-09 13:46:00,28.6,20.0,30.42,East,85,2.0,5.0,71,0.00,,,0.00,weatherlink.com 1.10,2013-02-09 18:46:00,
2013-02-09 14:00:00,29.5,20.9,30.42,ESE,112,2.0,10.0,70,0.00,,SKC,0.00,VWS V14.01,2013-02-09 19:00:00,
2013-02-09 14:01:00,29.4,21.0,30.42,East,96,0.0,10.0,70,0.00,,,0.00,weatherlink.com 1.10,2013-02-09 19:01:00,
2013-02-09 14:16:00,30.3,22.0,30.42,SSE,153,2.0,4.0,71,0.00,,,0.00,weatherlink.com 1.10,2013-02-09 19:16:00,
2013-02-09 14:30:00,30.0,22.1,30.41,SE,135,1.0,7.0,72,0.00,,SKC,0.00,VWS V14.01,2013-02-09 19:30:00,
2013-02-09 14:31:00,30.0,22.0,30.41,East,98,3.0,4.0,72,0.00,,,0.00,weatherlink.com 1.10,2013-02-09 19:31:00,
2013-02-09 14:47:00,30.7,21.0,30.40,SE,135,4.0,5.0,68,0.00,,,0.00,weatherlink.com 1.10,2013-02-09 19:47:00,
2013-02-09 15:00:00,30.5,21.9,30.39,SE,135,2.0,9.0,70,0.00,,SKC,0.00,VWS V14.01,2013-02-09 20:00:00,
2013-02-09 15:01:00,30.6,22.0,30.39,SE,130,2.0,9.0,70,0.00,,,0.00,weatherlink.com 1.10,2013-02-09 20:01:00,
2013-02-09 15:17:00,31.1,22.0,30.38,SSE,165,1.0,6.0,69,0.00,,,0.00,weatherlink.com 1.10,2013-02-09 20:17:00,
2013-02-09 15:30:00,31.0,22.0,30.37,ESE,112,3.0,13.0,69,0.00,,SKC,0.00,VWS V14.01,2013-02-09 20:30:00,
2013-02-09 15:32:00,31.0,22.0,30.37,ESE,123,1.0,12.0,69,0.00,,,0.00,weatherlink.com 1.10,2013-02-09 20:32:00,
2013-02-09 15:46:00,31.8,23.0,30.36,SE,131,2.0,8.0,71,0.00,,,0.00,weatherlink.com 1.10,2013-02-09 20:46:00,
2013-02-09 16:00:00,31.4,22.8,30.36,ESE,112,5.0,11.0,70,0.00,,SKC,0.00,VWS V14.01,2013-02-09 21:00:00,
2013-02-09 16:01:00,31.4,23.0,30.36,ESE,119,3.0,11.0,71,0.00,,,0.00,weatherlink.com 1.10,2013-02-09 21:01:00,
2013-02-09 16:17:00,31.4,23.0,30.36,ESE,109,8.0,11.0,72,0.00,,,0.00,weatherlink.com 1.10,2013-02-09 21:17:00,
2013-02-09 16:30:00,31.9,24.2,30.35,ESE,112,5.0,11.0,73,0.00,,SKC,0.00,VWS V14.01,2013-02-09 21:30:00,
2013-02-09 16:31:00,31.9,24.0,30.35,SSE,153,2.0,6.0,73,0.00,,,0.00,weatherlink.com 1.10,2013-02-09 21:31:00,
2013-02-09 16:46:00,32.2,24.0,30.36,East,96,2.0,8.0,71,0.00,,,0.00,weatherlink.com 1.10,2013-02-09 21:46:00,
2013-02-09 17:00:00,32.3,23.6,30.35,SE,135,3.0,8.0,70,0.00,,SKC,0.00,VWS V14.01,2013-02-09 22:00:00,
2013-02-09 17:01:00,32.4,24.0,30.35,SE,136,2.0,7.0,70,0.00,,,0.00,weatherlink.com 1.10,2013-02-09 22:01:00,
2013-02-09 17:16:00,32.0,24.0,30.35,ESE,121,2.0,7.0,71,0.00,,,0.00,weatherlink.com 1.10,2013-02-09 22:16:00,
2013-02-09 17:30:00,31.2,23.6,30.35,SE,135,2.0,8.0,73,0.00,,SKC,0.00,VWS V14.01,2013-02-09 22:30:00,
2013-02-09 17:32:00,31.2,23.0,30.35,SE,146,1.0,6.0,73,0.00,,,0.00,weatherlink.com 1.10,2013-02-09 22:32:00,
2013-02-09 17:46:00,30.3,23.0,30.35,ESE,122,1.0,3.0,75,0.00,,,0.00,weatherlink.com 1.10,2013-02-09 22:46:00,
2013-02-09 18:00:00,29.4,22.8,30.35,SE,135,1.0,5.0,76,0.00,,SKC,0.00,VWS V14.01,2013-02-09 23:00:00,
2013-02-09 18:01:00,29.4,23.0,30.35,SE,136,0.0,2.0,76,0.00,,,0.00,weatherlink.com 1.10,2013-02-09 23:01:00,
2013-02-09 18:17:00,28.4,22.0,30.35,SE,134,0.0,2.0,78,0.00,,,0.00,weatherlink.com 1.10,2013-02-09 23:17:00,
2013-02-09 18:30:00,27.6,22.0,30.35,SE,135,0.0,2.0,79,0.00,,SKC,0.00,VWS V14.01,2013-02-09 23:30:00,
2013-02-09 18:31:00,27.6,22.0,30.35,SE,134,1.0,2.0,79,0.00,,,0.00,weatherlink.com 1.10,2013-02-09 23:31:00,
2013-02-09 18:46:00,28.1,22.0,30.35,ESE,102,1.0,2.0,79,0.00,,,0.00,weatherlink.com 1.10,2013-02-09 23:46:00,
2013-02-09 19:00:00,27.6,22.0,30.34,ENE,68,2.0,4.0,79,0.00,,SKC,0.00,VWS V14.01,2013-02-10 00:00:00,
2013-02-09 19:01:00,27.6,22.0,30.34,ENE,71,2.0,4.0,79,0.00,,,0.00,weatherlink.com 1.10,2013-02-10 00:01:00,
2013-02-09 19:16:00,26.9,21.0,30.34,ENE,65,3.0,3.0,79,0.00,,,0.00,weatherlink.com 1.10,2013-02-10 00:16:00,
2013-02-09 19:30:00,26.4,21.1,30.34,ENE,68,2.0,5.0,80,0.00,,SKC,0.00,VWS V14.01,2013-02-10 00:30:00,
2013-02-09 19:32:00,26.3,21.0,30.34,ENE,75,3.0,3.0,80,0.00,,,0.00,weatherlink.com 1.10,2013-02-10 00:32:00,
2013-02-09 19:47:00,26.1,21.0,30.33,ENE,78,3.0,4.0,80,0.00,,,0.00,weatherlink.com 1.10,2013-02-10 00:47:00,
2013-02-09 20:00:00,26.5,21.2,30.33,East,90,3.0,6.0,80,0.00,,SKC,0.00,VWS V14.01,2013-02-10 01:00:00,
2013-02-09 20:02:00,26.6,21.0,30.33,East,84,5.0,7.0,80,0.00,,,0.00,weatherlink.com 1.10,2013-02-10 01:02:00,
2013-02-09 20:17:00,26.5,21.0,30.33,ENE,76,2.0,5.0,81,0.00,,,0.00,weatherlink.com 1.10,2013-02-10 01:17:00,
2013-02-09 20:30:00,26.5,21.5,30.33,ENE,68,3.0,7.0,81,0.00,,SKC,0.00,VWS V14.01,2013-02-10 01:30:00,
2013-02-09 20:32:00,26.5,21.0,30.33,East,81,2.0,7.0,81,0.00,,,0.00,weatherlink.com 1.10,2013-02-10 01:32:00,
2013-02-09 20:47:00,26.1,21.0,30.32,East,90,7.0,8.0,82,0.00,,,0.00,weatherlink.com 1.10,2013-02-10 01:47:00,
2013-02-09 21:00:00,25.5,20.8,30.32,East,90,5.0,8.0,82,0.00,,SKC,0.00,VWS V14.01,2013-02-10 02:00:00,
2013-02-09 21:02:00,25.5,21.0,30.32,East,88,5.0,7.0,83,0.00,,,0.00,weatherlink.com 1.10,2013-02-10 02:02:00,
2013-02-09 21:17:00,25.2,21.0,30.32,East,82,2.0,7.0,83,0.00,,,0.00,weatherlink.com 1.10,2013-02-10 02:17:00,
2013-02-09 21:30:00,25.3,21.1,30.32,East,90,4.0,7.0,84,0.00,,SKC,0.00,VWS V14.01,2013-02-10 02:30:00,
2013-02-09 21:32:00,25.3,21.0,30.32,ENE,77,4.0,7.0,84,0.00,,,0.00,weatherlink.com 1.10,2013-02-10 02:32:00,
2013-02-09 21:47:00,25.7,22.0,30.32,East,86,3.0,7.0,84,0.00,,,0.00,weatherlink.com 1.10,2013-02-10 02:47:00,
2013-02-09 22:00:00,25.5,21.4,30.31,East,90,4.0,7.0,84,0.00,,SKC,0.00,VWS V14.01,2013-02-10 03:00:00,
2013-02-09 22:02:00,25.4,21.0,30.31,East,88,2.0,7.0,84,0.00,,,0.00,weatherlink.com 1.10,2013-02-10 03:02:00,
2013-02-09 22:17:00,25.6,21.0,30.32,East,94,6.0,8.0,84,0.00,,,0.00,weatherlink.com 1.10,2013-02-10 03:17:00,
2013-02-09 22:30:00,25.3,21.1,30.31,East,90,4.0,8.0,84,0.00,,SKC,0.00,VWS V14.01,2013-02-10 03:30:00,
2013-02-09 22:32:00,25.3,21.0,30.31,ESE,107,4.0,7.0,84,0.00,,,0.00,weatherlink.com 1.10,2013-02-10 03:32:00,
2013-02-09 22:47:00,25.2,21.0,30.31,ESE,113,5.0,7.0,84,0.00,,,0.00,weatherlink.com 1.10,2013-02-10 03:47:00,
2013-02-09 23:00:00,24.7,20.8,30.30,ESE,112,5.0,7.0,85,0.00,,SKC,0.00,VWS V14.01,2013-02-10 04:00:00,
2013-02-09 23:02:00,24.8,21.0,30.30,ESE,107,5.0,7.0,84,0.00,,,0.00,weatherlink.com 1.10,2013-02-10 04:02:00,
2013-02-09 23:17:00,25.0,21.0,30.29,East,88,5.0,7.0,85,0.00,,,0.00,weatherlink.com 1.10,2013-02-10 04:17:00,
2013-02-09 23:30:00,25.1,21.0,30.29,East,90,4.0,7.0,84,0.00,,SKC,0.00,VWS V14.01,2013-02-10 04:30:00,
2013-02-09 23:32:00,25.0,21.0,30.29,ESE,102,3.0,7.0,84,0.00,,,0.00,weatherlink.com 1.10,2013-02-10 04:32:00,
2013-02-09 23:47:00,24.8,21.0,30.29,ESE,102,4.0,5.0,85,0.00,,,0.00,weatherlink.com 1.10,2013-02-10 04:47:00,